createdAt,value
2022-12-23T00:02:02.806Z,83.68
2022-12-23T00:06:12.780Z,83.42
2022-12-23T00:10:14.351Z,83.25
2022-12-23T00:14:34.547Z,82.67
2022-12-23T00:18:36.706Z,82.24
2022-12-23T00:22:56.880Z,82.19
2022-12-23T00:26:58.427Z,81.48
2022-12-23T00:31:05.640Z,80.97
2022-12-23T00:35:07.458Z,81.13
2022-12-23T00:39:31.046Z,81.31
2022-12-23T00:43:32.552Z,81.70
2022-12-23T00:47:52.888Z,81.12
2022-12-23T00:51:54.424Z,81.08
2022-12-23T00:55:55.973Z,80.50
2022-12-23T00:59:57.572Z,80.42
2022-12-23T01:04:17.637Z,80.17
2022-12-23T01:08:19.153Z,80.18
2022-12-23T01:12:20.844Z,80.07
2022-12-23T01:16:22.411Z,80.12
2022-12-23T01:20:24.851Z,80.06
2022-12-23T01:24:30.477Z,80.08
2022-12-23T01:28:32.430Z,80.07
2022-12-23T01:32:34.419Z,79.57
2022-12-23T01:36:36.433Z,80.16
2022-12-23T01:40:41.136Z,79.87
2022-12-23T01:44:56.072Z,79.32
2022-12-23T01:48:57.697Z,79.12
2022-12-23T01:53:08.736Z,79.80
2022-12-23T01:57:11.061Z,79.48
2022-12-23T02:01:31.964Z,79.15
2022-12-23T02:05:34.922Z,79.69
2022-12-23T02:09:39.877Z,79.66
2022-12-23T02:14:15.413Z,80.18
2022-12-23T02:18:41.852Z,79.66
2022-12-23T02:23:04.399Z,79.52
2022-12-23T02:27:13.533Z,79.49
2022-12-23T02:31:31.964Z,79.41
2022-12-23T02:35:44.945Z,79.31
2022-12-23T02:39:54.208Z,78.64
2022-12-23T02:44:18.620Z,78.47
2022-12-23T02:48:35.887Z,78.18
2022-12-23T02:52:41.213Z,77.73
2022-12-23T02:56:47.342Z,78.42
2022-12-23T03:00:49.782Z,78.51
2022-12-23T03:04:51.748Z,79.11
2022-12-23T03:08:57.514Z,79.42
2022-12-23T03:13:12.671Z,78.51
2022-12-23T03:17:25.516Z,78.50
2022-12-23T03:21:37.414Z,78.33
2022-12-23T03:25:42.180Z,78.25
2022-12-23T03:29:57.660Z,78.67
2022-12-23T03:34:14.254Z,78.48
2022-12-23T03:38:18.321Z,77.99
2022-12-23T03:42:28.527Z,78.04
2022-12-23T03:46:53.077Z,78.04
2022-12-23T03:50:59.783Z,77.90
2022-12-23T03:55:06.099Z,77.39
2022-12-23T03:59:17.747Z,77.01
2022-12-23T04:03:31.318Z,77.56
2022-12-23T04:07:39.631Z,77.20
2022-12-23T04:11:41.818Z,77.04
2022-12-23T04:15:43.592Z,77.53
2022-12-23T04:19:46.433Z,77.94
2022-12-23T04:23:47.881Z,77.61
2022-12-23T04:27:49.427Z,77.23
2022-12-23T04:31:50.912Z,78.20
2022-12-23T04:35:52.431Z,78.12
2022-12-23T04:39:53.916Z,78.16
2022-12-23T04:43:55.538Z,78.64
2022-12-23T04:47:57.550Z,78.72
2022-12-23T04:51:59.238Z,78.96
2022-12-23T04:56:00.917Z,78.58
2022-12-23T05:00:03.989Z,77.83
2022-12-23T05:04:05.447Z,78.48
2022-12-23T05:08:06.917Z,78.63
2022-12-23T05:12:08.650Z,78.64
2022-12-23T05:16:10.169Z,78.80
2022-12-23T05:20:11.812Z,78.56
2022-12-23T05:24:13.404Z,76.98
2022-12-23T05:28:15.045Z,76.32
2022-12-23T05:32:16.510Z,76.57
2022-12-23T05:36:18.043Z,76.38
2022-12-23T05:40:23.723Z,76.26
2022-12-23T05:44:30.396Z,75.84
2022-12-23T05:48:31.901Z,75.35
2022-12-23T05:52:33.391Z,75.84
2022-12-23T05:56:34.823Z,74.97
2022-12-23T06:00:36.331Z,75.11
2022-12-23T06:04:37.880Z,73.76
2022-12-23T06:08:39.508Z,74.00
2022-12-23T06:12:41.196Z,73.60
2022-12-23T06:16:42.796Z,73.70
2022-12-23T06:20:47.768Z,73.34
2022-12-23T06:24:49.900Z,73.41
2022-12-23T06:28:51.551Z,73.32
2022-12-23T06:32:53.088Z,72.98
2022-12-23T06:36:54.760Z,72.85
2022-12-23T06:40:56.474Z,74.01
2022-12-23T06:44:57.945Z,73.44
2022-12-23T06:48:59.434Z,74.53
2022-12-23T06:53:00.976Z,76.96
2022-12-23T06:57:02.728Z,78.94
2022-12-23T07:01:04.561Z,80.55
2022-12-23T07:05:06.355Z,81.27
2022-12-23T07:09:07.844Z,82.43
2022-12-23T07:13:09.780Z,84.30
2022-12-23T07:17:11.486Z,84.15
2022-12-23T07:21:21.210Z,83.50
2022-12-23T07:25:28.293Z,83.60
2022-12-23T07:29:29.957Z,84.30
2022-12-23T07:33:31.470Z,84.09
2022-12-23T07:37:33.133Z,83.01
2022-12-23T07:41:34.666Z,82.67
2022-12-23T07:45:41.122Z,82.41
2022-12-23T07:49:42.647Z,82.75
2022-12-23T07:53:47.725Z,82.99
2022-12-23T07:57:50.348Z,83.14
2022-12-23T08:01:52.126Z,82.37
2022-12-23T08:06:01.579Z,82.33
2022-12-23T08:10:04.198Z,82.24
2022-12-23T08:14:06.286Z,82.18
2022-12-23T08:18:07.798Z,82.68
2022-12-23T08:22:09.329Z,82.64
2022-12-23T08:26:16.852Z,81.88
2022-12-23T08:30:18.478Z,80.37
2022-12-23T08:34:19.984Z,79.40
2022-12-23T08:38:21.604Z,78.74
2022-12-23T08:42:23.228Z,77.79
2022-12-23T08:46:25.929Z,77.65
2022-12-23T08:50:27.645Z,77.12
2022-12-23T08:54:29.442Z,77.08
2022-12-23T08:58:31.603Z,76.70
2022-12-23T09:02:34.990Z,77.47
2022-12-23T09:06:40.690Z,77.44
2022-12-23T09:10:43.585Z,76.18
2022-12-23T09:14:47.623Z,76.93
2022-12-23T09:18:49.236Z,76.43
2022-12-23T09:22:50.991Z,75.97
2022-12-23T09:26:52.456Z,75.66
2022-12-23T09:30:54.042Z,75.65
2022-12-23T09:34:55.618Z,74.35
2022-12-23T09:38:58.058Z,74.39
2022-12-23T09:43:20.908Z,75.57
2022-12-23T09:47:26.509Z,73.96
2022-12-23T09:51:30.587Z,73.15
2022-12-23T09:55:47.074Z,71.94
2022-12-23T10:00:03.204Z,66.14
2022-12-23T10:04:19.407Z,60.83
2022-12-23T10:08:44.994Z,63.78
2022-12-23T10:12:49.897Z,65.40
2022-12-23T10:16:58.830Z,67.48
2022-12-23T10:21:06.117Z,68.78
2022-12-23T10:25:15.577Z,69.50
2022-12-23T10:29:20.155Z,70.52
2022-12-23T10:33:24.326Z,70.79
2022-12-23T10:37:43.813Z,71.10
2022-12-23T10:42:01.699Z,69.83
2022-12-23T10:46:25.574Z,70.31
2022-12-23T10:50:36.294Z,70.58
2022-12-23T10:54:41.560Z,70.43
2022-12-23T10:58:48.260Z,70.58
2022-12-23T11:03:07.968Z,70.50
2022-12-23T11:11:52.578Z,70.28
2022-12-23T11:16:10.862Z,70.72
2022-12-23T11:20:20.140Z,70.86
2022-12-23T11:24:22.681Z,70.72
2022-12-23T11:28:24.419Z,70.13
2022-12-23T11:32:28.094Z,69.50
2022-12-23T11:36:31.273Z,69.33
2022-12-23T11:40:38.572Z,67.38
2022-12-23T11:44:44.110Z,63.44
2022-12-23T11:48:50.062Z,61.50
2022-12-23T11:53:04.509Z,63.27
2022-12-23T11:57:14.951Z,62.30
2022-12-23T12:01:20.349Z,59.21
2022-12-23T12:05:40.483Z,56.64
2022-12-23T12:09:45.601Z,58.34
2022-12-23T12:13:56.618Z,59.24
2022-12-23T12:17:59.010Z,59.80
2022-12-23T12:22:06.849Z,58.59
2022-12-23T12:26:20.200Z,52.03
2022-12-23T12:30:22.418Z,54.12
2022-12-23T12:34:34.142Z,55.22
2022-12-23T12:38:39.196Z,57.38
2022-12-23T12:42:43.398Z,55.98
2022-12-23T12:46:49.777Z,58.56
2022-12-23T12:51:24.899Z,61.64
2022-12-23T12:55:31.680Z,63.36
2022-12-23T12:59:39.070Z,64.86
2022-12-23T13:03:55.785Z,65.95
2022-12-23T13:07:57.435Z,65.29
2022-12-23T13:12:14.884Z,65.86
2022-12-23T13:16:25.070Z,65.65
2022-12-23T13:20:38.533Z,65.65
2022-12-23T13:24:43.761Z,67.19
2022-12-23T13:29:06.193Z,66.95
2022-12-23T13:33:07.896Z,67.56
2022-12-23T13:37:50.223Z,68.07
2022-12-23T13:41:59.890Z,69.14
2022-12-23T13:46:30.623Z,68.17
2022-12-23T13:50:43.616Z,68.20
2022-12-23T13:54:48.495Z,67.80
2022-12-23T13:58:51.321Z,68.06
2022-12-23T14:03:06.973Z,68.04
2022-12-23T14:07:21.516Z,68.33
2022-12-23T14:11:28.429Z,68.19
2022-12-23T14:15:51.232Z,68.67
2022-12-23T14:20:01.957Z,68.86
2022-12-23T14:24:31.580Z,68.42
2022-12-23T14:28:56.562Z,69.15
2022-12-23T14:33:00.459Z,68.30
2022-12-23T14:37:20.486Z,68.70
2022-12-23T14:41:39.723Z,68.73
2022-12-23T14:45:44.852Z,68.78
2022-12-23T14:49:46.675Z,69.02
2022-12-23T14:53:56.614Z,69.47
2022-12-23T14:58:17.024Z,69.18
2022-12-23T15:02:30.899Z,69.38
2022-12-23T15:06:37.003Z,68.69
2022-12-23T15:10:38.707Z,68.98
2022-12-23T15:14:54.300Z,68.72
2022-12-23T15:18:57.867Z,68.82
2022-12-23T15:23:14.234Z,69.36
2022-12-23T15:27:29.423Z,68.87
2022-12-23T15:31:35.255Z,69.28
2022-12-23T15:35:39.903Z,69.62
2022-12-23T15:39:44.858Z,69.45
2022-12-23T15:43:46.520Z,69.49
2022-12-23T15:47:48.231Z,69.25
2022-12-23T15:52:08.021Z,70.04
2022-12-23T15:56:23.537Z,70.11
2022-12-23T16:00:30.985Z,70.11
2022-12-23T16:04:32.603Z,70.60
2022-12-23T16:08:34.322Z,70.74
2022-12-23T16:12:36.473Z,70.44
2022-12-23T16:16:39.914Z,70.71
2022-12-23T16:20:45.117Z,71.01
2022-12-23T16:24:48.608Z,70.99
2022-12-23T16:28:53.436Z,70.97
2022-12-23T16:32:58.087Z,70.75
2022-12-23T16:36:59.596Z,71.75
2022-12-23T16:41:01.204Z,71.48
2022-12-23T16:45:02.815Z,71.51
2022-12-23T16:49:06.612Z,72.14
2022-12-23T16:53:14.131Z,72.19
2022-12-23T16:57:15.663Z,72.46
2022-12-23T17:01:24.701Z,72.24
2022-12-23T17:05:26.338Z,72.65
2022-12-23T17:09:27.846Z,72.86
2022-12-23T17:13:29.443Z,73.43
2022-12-23T17:17:31.055Z,73.68
2022-12-23T17:21:36.730Z,73.69
2022-12-23T17:25:38.751Z,73.83
2022-12-23T17:29:40.611Z,74.68
2022-12-23T17:33:42.238Z,75.46
2022-12-23T17:37:43.929Z,76.69
2022-12-23T17:41:46.096Z,76.61
2022-12-23T17:45:47.662Z,77.49
2022-12-23T17:49:50.226Z,77.76
2022-12-23T17:53:57.672Z,78.63
2022-12-23T17:57:59.731Z,79.24
2022-12-23T18:02:03.146Z,80.09
2022-12-23T18:06:09.479Z,79.99
2022-12-23T18:10:19.066Z,79.30
2022-12-23T18:14:27.708Z,80.41
2022-12-23T18:18:37.938Z,80.07
2022-12-23T18:22:47.419Z,80.48
2022-12-23T18:26:49.195Z,81.01
2022-12-23T18:30:53.162Z,81.17
2022-12-23T18:34:55.743Z,81.35
2022-12-23T18:38:57.631Z,81.46
2022-12-23T18:42:59.348Z,83.68
2022-12-23T18:47:00.893Z,84.81
2022-12-23T18:51:02.690Z,85.97
2022-12-23T18:55:06.421Z,86.37
2022-12-23T18:59:16.596Z,86.83
2022-12-23T19:03:27.500Z,87.60
2022-12-23T19:07:28.965Z,88.19
2022-12-23T19:11:30.957Z,89.12
2022-12-23T19:15:32.596Z,88.78
2022-12-23T19:19:34.180Z,89.12
2022-12-23T19:23:35.948Z,89.91
2022-12-23T19:27:40.438Z,90.23
2022-12-23T19:31:42.043Z,90.13
2022-12-23T19:35:44.031Z,90.22
2022-12-23T19:39:45.531Z,90.35
2022-12-23T19:43:47.333Z,90.30
2022-12-23T19:47:48.863Z,90.45
2022-12-23T19:51:50.825Z,90.81
2022-12-23T19:56:05.764Z,90.38
2022-12-23T20:00:08.888Z,90.44
2022-12-23T20:04:16.371Z,89.91
2022-12-23T20:08:17.901Z,89.46
2022-12-23T20:12:19.554Z,89.60
2022-12-23T20:16:22.004Z,89.53
2022-12-23T20:20:23.724Z,89.31
2022-12-23T20:24:25.242Z,88.97
2022-12-23T20:28:27.199Z,89.41
2022-12-23T20:32:28.650Z,89.76
2022-12-23T20:36:32.607Z,89.11
2022-12-23T20:40:34.151Z,88.28
2022-12-23T20:44:37.262Z,88.79
2022-12-23T20:48:39.150Z,88.00
2022-12-23T20:52:40.914Z,88.27
2022-12-23T20:56:42.488Z,88.33
2022-12-23T21:00:44.061Z,87.88
2022-12-23T21:04:45.772Z,88.38
2022-12-23T21:08:47.606Z,87.64
2022-12-23T21:12:49.227Z,87.42
2022-12-23T21:16:50.774Z,86.80
2022-12-23T21:20:52.528Z,86.64
2022-12-23T21:24:54.087Z,86.56
2022-12-23T21:28:59.321Z,86.56
2022-12-23T21:33:02.377Z,87.22
2022-12-23T21:37:04.202Z,87.01
2022-12-23T21:41:09.042Z,86.97
2022-12-23T21:45:11.093Z,87.34
2022-12-23T21:49:12.928Z,87.03
2022-12-23T21:53:14.713Z,87.18
2022-12-23T21:57:16.361Z,87.46
2022-12-23T22:01:20.669Z,86.61
2022-12-23T22:05:22.246Z,87.63
2022-12-23T22:09:23.813Z,87.79
2022-12-23T22:13:27.256Z,87.35
2022-12-23T22:17:28.794Z,87.54
2022-12-23T22:21:32.003Z,87.90
2022-12-23T22:25:33.756Z,87.88
2022-12-23T22:29:35.444Z,88.15
2022-12-23T22:33:37.045Z,89.12
2022-12-23T22:37:39.496Z,88.68
2022-12-23T22:41:41.111Z,88.29
2022-12-23T22:45:42.631Z,88.79
2022-12-23T22:49:44.459Z,88.58
2022-12-23T22:53:46.705Z,88.85
2022-12-23T22:57:48.327Z,89.43
2022-12-23T23:01:51.687Z,90.07
2022-12-23T23:06:02.202Z,90.37
2022-12-23T23:10:04.978Z,91.18
2022-12-23T23:14:07.106Z,91.93
2022-12-23T23:18:08.749Z,90.81
2022-12-23T23:22:10.386Z,89.16
2022-12-23T23:26:12.550Z,88.09
2022-12-23T23:30:14.200Z,89.11
2022-12-23T23:34:15.717Z,89.41
2022-12-23T23:38:17.260Z,89.81
2022-12-23T23:42:18.837Z,89.23
2022-12-23T23:46:20.491Z,88.83
2022-12-23T23:50:22.747Z,89.14
2022-12-23T23:54:24.321Z,89.21
2022-12-23T23:58:26.044Z,88.52
